Time;durP1;ratioP1;P1;durP2;ratioP2;P2;SDS_P1;SDS_P2;PMS_P1;PMS_P2;Temp;Humidity;BMP_temperature;BMP_pressure;BME280_temperature;BME280_humidity;BME280_pressure;Samples;Min_cycle;Max_cycle;Signal;HPM_P1;HPM_P2
2022/12/22 03:25:57;;;;;;;0.50;0.50;;;;;;;7.78;97.16;96216.44;29396;274;63015;-57
2022/12/22 03:26:29;;;;;;;0.50;0.50;;;;;;;7.77;96.94;96214.81;29396;208;63005;-57
2022/12/22 03:27:00;;;;;;;0.50;0.50;;;;;;;7.77;97.25;96219.44;29395;218;64013;-57
2022/12/22 03:27:31;;;;;;;0.50;0.50;;;;;;;7.76;96.84;96218.63;29396;215;63005;-57
2022/12/22 03:28:05;;;;;;;0.50;0.50;;;;;;;7.78;96.96;96213.72;29396;202;63009;-57
2022/12/22 03:28:37;;;;;;;0.40;0.40;;;;;;;7.77;96.77;96220.22;29396;219;63004;-57
2022/12/22 03:29:08;;;;;;;0.50;0.50;;;;;;;7.84;96.67;96215.28;29396;214;63009;-58
2022/12/22 03:29:39;;;;;;;0.50;0.50;;;;;;;7.85;96.40;96216.88;29396;213;63004;-57
2022/12/22 03:30:11;;;;;;;0.52;0.52;;;;;;;7.84;96.80;96217.97;29396;205;63009;-57
2022/12/22 03:30:42;;;;;;;0.50;0.50;;;;;;;7.81;96.52;96221.25;29395;301;64009;-57
2022/12/22 03:31:14;;;;;;;0.55;0.55;;;;;;;7.79;97.09;96217.25;29396;239;63008;-57
2022/12/22 03:31:45;;;;;;;0.50;0.50;;;;;;;7.77;96.74;96214.81;29396;240;63005;-57
2022/12/22 03:32:17;;;;;;;0.50;0.50;;;;;;;7.76;97.46;96217.81;29395;202;64014;-57
2022/12/22 03:32:48;;;;;;;0.50;0.50;;;;;;;7.76;97.46;96213.22;29396;248;63005;-57
2022/12/22 03:33:19;;;;;;;0.50;0.50;;;;;;;7.75;97.33;96222.41;29396;203;63009;-56
2022/12/22 03:33:52;;;;;;;0.40;0.40;;;;;;;7.77;97.47;96219.44;29396;236;63005;-57
2022/12/22 03:34:24;;;;;;;0.50;0.50;;;;;;;7.78;97.13;96221.03;29396;235;63009;-57
2022/12/22 03:34:55;;;;;;;0.50;0.50;;;;;;;7.80;97.51;96216.94;29396;215;63005;-57
2022/12/22 03:35:26;;;;;;;0.50;0.50;;;;;;;7.80;97.28;96222.34;29396;319;63009;-57
2022/12/22 03:35:58;;;;;;;0.50;0.50;;;;;;;7.83;97.34;96219.06;29396;256;63004;-57
2022/12/22 03:36:30;;;;;;;0.50;0.50;;;;;;;7.83;97.23;96207.47;29396;204;63009;-58
2022/12/22 03:37:01;;;;;;;0.50;0.50;;;;;;;7.91;97.17;96194.12;29395;215;64009;-57
2022/12/22 03:37:32;;;;;;;0.50;0.50;;;;;;;7.96;97.09;96188.63;29396;203;63009;-57
2022/12/22 03:38:03;;;;;;;0.50;0.50;;;;;;;8.00;96.42;96186.94;29396;242;63000;-57
2022/12/22 03:38:35;;;;;;;0.50;0.50;;;;;;;8.03;96.15;96174.72;29396;232;63008;-58
2022/12/22 03:39:08;;;;;;;0.50;0.50;;;;;;;8.01;96.13;96172.31;29396;220;63008;-58
2022/12/22 03:39:39;;;;;;;0.60;0.60;;;;;;;7.99;95.83;96179.12;29396;203;63009;-57
2022/12/22 03:40:12;;;;;;;0.50;0.50;;;;;;;7.98;96.44;96181.00;29396;236;63005;-57
2022/12/22 03:40:43;;;;;;;0.60;0.60;;;;;;;8.02;96.30;96176.63;29396;257;63009;-57
2022/12/22 03:46:31;;;;;;;0.50;0.50;;;;;;;7.93;96.24;96180.31;29395;249;64008;-78
2022/12/22 03:47:02;;;;;;;0.60;0.60;;;;;;;7.93;96.34;96174.91;29418;219;63009;-58
2022/12/22 03:47:33;;;;;;;0.50;0.50;;;;;;;7.91;96.13;96177.09;29396;221;63005;-68
2022/12/22 03:48:05;;;;;;;0.50;0.50;;;;;;;7.90;96.22;96180.91;29396;232;63009;-58
2022/12/22 03:48:36;;;;;;;0.50;0.50;;;;;;;7.86;96.48;96172.56;29396;246;63005;-57
2022/12/22 03:49:10;;;;;;;0.50;0.50;;;;;;;7.85;96.92;96180.97;29396;270;63009;-58
2022/12/22 03:49:41;;;;;;;0.50;0.50;;;;;;;7.82;97.07;96185.06;29396;221;63008;-57
2022/12/22 03:50:12;;;;;;;0.50;0.50;;;;;;;7.79;97.04;96182.13;29395;214;64013;-58
2022/12/22 03:50:44;;;;;;;0.50;0.50;;;;;;;7.80;97.07;96187.25;29396;205;63017;-58
2022/12/22 03:51:15;;;;;;;0.50;0.50;;;;;;;7.80;97.54;96186.44;29396;213;63009;-59
2022/12/22 03:51:49;;;;;;;0.50;0.50;;;;;;;7.82;97.17;96176.94;29396;199;63004;-58
2022/12/22 03:52:20;;;;;;;0.50;0.50;;;;;;;7.88;97.35;96175.78;29396;237;63009;-57
2022/12/22 03:52:51;;;;;;;0.50;0.50;;;;;;;7.90;96.94;96176.31;29396;232;63004;-57
2022/12/22 03:53:22;;;;;;;0.50;0.50;;;;;;;7.93;96.71;96175.72;29396;227;63009;-57
2022/12/22 03:53:54;;;;;;;0.50;0.50;;;;;;;7.93;96.37;96175.72;29397;313;63004;-57
2022/12/22 03:54:25;;;;;;;0.50;0.50;;;;;;;7.93;96.49;96180.31;29396;252;63009;-57
2022/12/22 03:54:57;;;;;;;0.50;0.50;;;;;;;7.89;96.58;96174.69;29395;217;64006;-58
2022/12/22 03:55:28;;;;;;;0.50;0.50;;;;;;;7.99;96.44;96179.12;29397;233;63009;-59
2022/12/22 03:55:59;;;;;;;0.50;0.50;;;;;;;7.98;96.01;96178.31;29396;221;63005;-57
2022/12/22 03:56:31;;;;;;;0.45;0.45;;;;;;;7.98;96.08;96189.13;29397;240;63009;-58
2022/12/22 03:57:03;;;;;;;0.50;0.50;;;;;;;7.95;95.85;96178.12;29397;208;63005;-58
2022/12/22 03:57:36;;;;;;;0.50;0.50;;;;;;;7.92;96.32;96179.50;29396;205;63009;-58
2022/12/22 03:58:07;;;;;;;2.55;2.45;;;;;;;7.89;96.35;96185.50;29395;212;63005;-57
2022/12/22 03:58:40;;;;;;;0.50;0.50;;;;;;;7.85;96.31;96184.47;29396;233;63009;-57
2022/12/22 03:59:12;;;;;;;0.50;0.50;;;;;;;7.84;96.65;96185.56;29395;218;63000;-70
2022/12/22 03:59:43;;;;;;;0.50;0.50;;;;;;;7.82;96.64;96182.34;29396;202;63009;-58
2022/12/22 04:00:16;;;;;;;0.50;0.50;;;;;;;7.83;97.16;96177.75;29394;252;64009;-57
2022/12/22 04:00:47;;;;;;;0.50;0.50;;;;;;;7.87;96.69;96182.28;29395;202;63009;-56
2022/12/22 04:01:19;;;;;;;0.50;0.50;;;;;;;7.87;96.75;96182.28;29395;204;63004;-58
2022/12/22 04:01:53;;;;;;;0.60;0.60;;;;;;;7.89;96.88;96179.28;29395;244;63008;-58
2022/12/22 04:02:24;;;;;;;0.50;0.50;;;;;;;7.87;96.78;96182.28;29393;203;64009;-58
2022/12/22 04:02:57;;;;;;;0.50;0.50;;;;;;;7.87;96.85;96181.47;29395;328;63009;-57
2022/12/22 04:03:32;;;;;;;0.50;0.50;;;;;;;7.86;96.79;96183.37;29395;203;63005;-59
2022/12/22 04:04:06;;;;;;;0.50;0.50;;;;;;;7.89;96.74;96180.09;29395;225;63009;-59
2022/12/22 04:04:37;;;;;;;0.50;0.50;;;;;;;7.89;96.37;96180.09;29395;254;63005;-57
2022/12/22 04:05:08;;;;;;;0.50;0.50;;;;;;;7.86;96.84;96180.69;29393;199;64013;-58
2022/12/22 04:05:40;;;;;;;0.50;0.50;;;;;;;7.84;96.87;96182.87;29395;208;63005;-57
2022/12/22 04:06:11;;;;;;;0.40;0.40;;;;;;;7.88;96.58;96183.88;29395;212;63009;-58
2022/12/22 04:06:43;;;;;;;0.50;0.50;;;;;;;7.89;96.82;96184.69;29395;206;63004;-58
2022/12/22 04:07:14;;;;;;;0.50;0.50;;;;;;;7.88;96.86;96181.19;29395;210;63009;-58
2022/12/22 04:07:46;;;;;;;0.60;0.60;;;;;;;7.90;96.50;96180.91;29395;208;63004;-57
2022/12/22 04:08:17;;;;;;;0.52;0.52;;;;;;;7.89;96.80;96177.38;29393;225;64013;-58
2022/12/22 04:08:48;;;;;;;0.70;0.70;;;;;;;7.93;96.25;96181.13;29395;212;63005;-57
2022/12/22 04:09:21;;;;;;;0.50;0.50;;;;;;;7.98;96.35;96178.31;29395;250;63009;-57
2022/12/22 04:13:09;;;;;;;0.50;0.50;;;;;;;7.94;95.73;96174.63;29395;298;63004;-57
2022/12/22 04:13:40;;;;;;;0.50;0.50;;;;;;;7.92;95.82;96176.81;29393;229;64013;-58
2022/12/22 04:14:12;;;;;;;0.52;0.52;;;;;;;7.93;96.32;96181.13;29395;275;63006;-56
2022/12/22 04:14:44;;;;;;;0.50;0.50;;;;;;;7.94;96.50;96174.63;29395;209;63009;-71
2022/12/22 04:15:15;;;;;;;0.50;0.50;;;;;;;7.96;96.08;96168.94;29395;240;63004;-56
2022/12/22 04:15:47;;;;;;;0.50;0.50;;;;;;;7.94;96.25;96171.91;29395;226;63008;-56
2022/12/22 04:16:19;;;;;;;0.50;0.50;;;;;;;7.93;96.08;96178.41;29393;226;64009;-57
2022/12/22 04:16:50;;;;;;;0.50;0.50;;;;;;;7.90;96.38;96170.91;29395;279;63009;-56
2022/12/22 04:17:22;;;;;;;0.55;0.55;;;;;;;7.89;96.58;96171.19;29395;203;63005;-57
2022/12/22 04:17:53;;;;;;;0.60;0.60;;;;;;;7.92;96.55;96163.31;29395;209;63017;-57
2022/12/22 04:18:24;;;;;;;0.50;0.50;;;;;;;7.94;96.32;96171.91;29395;199;63005;-55
2022/12/22 04:18:57;;;;;;;0.50;0.50;;;;;;;7.98;95.91;96167.50;29395;199;63009;-57
2022/12/22 04:19:30;;;;;;;0.50;0.50;;;;;;;8.05;95.82;96173.34;29395;202;63005;-56
2022/12/22 04:20:01;;;;;;;0.50;0.50;;;;;;;8.04;95.77;96171.75;29395;218;63009;-56
2022/12/22 04:20:33;;;;;;;0.50;0.50;;;;;;;8.05;95.74;96161.75;29395;269;63004;-56
2022/12/22 04:21:04;;;;;;;0.50;0.50;;;;;;;8.07;95.52;96167.66;29395;202;63009;-56
2022/12/22 04:21:37;;;;;;;0.50;0.50;;;;;;;8.07;95.17;96171.16;29393;262;64009;-58
2022/12/22 04:22:08;;;;;;;0.50;0.50;;;;;;;8.06;95.14;96164.16;29395;262;63009;-58
2022/12/22 04:22:39;;;;;;;0.50;0.50;;;;;;;8.04;95.35;96160.13;29395;219;63004;-76
2022/12/22 04:23:10;;;;;;;0.50;0.50;;;;;;;8.05;95.59;96165.25;29393;223;64013;-58
2022/12/22 04:23:42;;;;;;;0.50;0.50;;;;;;;8.04;95.60;96160.13;29395;234;63004;-61
2022/12/22 04:24:13;;;;;;;0.50;0.50;;;;;;;8.10;95.08;96163.56;29395;222;63009;-58
2022/12/22 04:24:44;;;;;;;0.47;0.47;;;;;;;8.15;94.87;96160.78;29395;200;63005;-59
2022/12/22 04:25:16;;;;;;;0.50;0.50;;;;;;;8.15;94.76;96169.69;29395;203;63009;-58
2022/12/22 04:25:47;;;;;;;0.50;0.50;;;;;;;8.14;94.75;96153.78;29395;239;63005;-60
2022/12/22 04:26:21;;;;;;;0.50;0.50;;;;;;;8.23;94.64;96166.31;29395;238;63009;-58
2022/12/22 04:26:53;;;;;;;0.50;0.50;;;;;;;8.22;94.33;96155.81;29395;242;63005;-58
2022/12/22 04:27:24;;;;;;;0.60;0.60;;;;;;;8.25;94.31;96161.44;29393;203;64013;-59
2022/12/22 04:27:55;;;;;;;0.50;0.50;;;;;;;8.23;93.86;96158.22;29395;222;63004;-57
2022/12/22 04:28:26;;;;;;;0.50;0.50;;;;;;;8.20;94.06;96155.31;29393;246;64013;-58
2022/12/22 04:28:58;;;;;;;0.50;0.50;;;;;;;8.18;94.10;96161.00;29395;213;63004;-58
2022/12/22 04:29:29;;;;;;;0.43;0.43;;;;;;;8.16;94.15;96151.56;29395;242;63009;-57
2022/12/22 04:30:00;;;;;;;0.50;0.50;;;;;;;8.15;94.32;96158.09;29393;215;64009;-59
2022/12/22 04:30:32;;;;;;;0.45;0.45;;;;;;;8.14;94.66;96153.78;29395;276;63008;-58
2022/12/22 04:31:06;;;;;;;0.50;0.50;;;;;;;8.14;95.02;96148.38;29395;211;63010;-58
2022/12/22 04:31:37;;;;;;;0.50;0.50;;;;;;;8.14;94.89;96149.16;29395;271;63009;-58
2022/12/22 04:32:08;;;;;;;0.60;0.60;;;;;;;8.19;94.93;96146.38;29395;309;63005;-59
2022/12/22 04:32:41;;;;;;;0.50;0.50;;;;;;;8.24;94.61;96150.91;29395;332;63009;-58
2022/12/22 04:33:12;;;;;;;0.50;0.50;;;;;;;8.20;94.33;96137.19;29394;414;64009;-58
2022/12/22 04:33:44;;;;;;;0.50;0.50;;;;;;;8.16;94.68;96141.56;29395;239;63009;-58
2022/12/22 04:34:18;;;;;;;0.50;0.50;;;;;;;8.14;94.68;96148.38;29395;234;63005;-57
2022/12/22 04:34:52;;;;;;;0.55;0.55;;;;;;;8.13;95.05;96141.34;29395;199;63009;-57
2022/12/22 04:35:23;;;;;;;0.50;0.50;;;;;;;8.13;94.97;96147.56;29395;242;63008;-58
2022/12/22 04:35:54;;;;;;;0.50;0.50;;;;;;;8.11;94.91;96141.66;29395;240;64013;-59
2022/12/22 04:36:26;;;;;;;0.50;0.50;;;;;;;8.10;94.95;96141.94;29395;196;63008;-58
2022/12/22 04:36:58;;;;;;;0.50;0.50;;;;;;;8.07;95.45;96137.94;29395;202;63009;-57
2022/12/22 04:37:29;;;;;;;0.50;0.50;;;;;;;8.06;95.62;96139.03;29395;253;63010;-58
2022/12/22 04:38:00;;;;;;;0.50;0.50;;;;;;;8.03;95.59;96137.72;29395;202;63008;-58
2022/12/22 04:38:32;;;;;;;0.50;0.50;;;;;;;8.03;95.78;96137.72;29395;244;63004;-57
2022/12/22 04:39:03;;;;;;;0.50;0.50;;;;;;;8.05;95.93;96127.41;29395;200;63009;-57
2022/12/22 04:39:34;;;;;;;0.50;0.50;;;;;;;8.07;95.68;96127.94;29395;248;63005;-58
2022/12/22 04:40:07;;;;;;;0.50;0.50;;;;;;;8.03;96.15;96126.91;29395;236;63009;-59
2022/12/22 04:40:42;;;;;;;0.50;0.50;;;;;;;8.01;96.36;96134.50;29395;223;63005;-69
2022/12/22 04:41:14;;;;;;;0.50;0.50;;;;;;;7.99;96.20;96131.28;29394;274;64013;-69
2022/12/22 04:41:46;;;;;;;0.50;0.50;;;;;;;7.99;96.35;96125.88;29395;202;63005;-70
2022/12/22 04:42:17;;;;;;;0.50;0.50;;;;;;;8.01;96.13;96123.69;29395;260;63009;-57
2022/12/22 04:42:49;;;;;;;0.50;0.50;;;;;;;8.00;96.09;96127.50;29395;226;63005;-72
2022/12/22 04:43:21;;;;;;;0.50;0.50;;;;;;;7.98;96.12;96124.28;29395;234;63009;-58
2022/12/22 04:43:52;;;;;;;0.50;0.50;;;;;;;8.04;96.67;96122.31;29395;213;63004;-57
2022/12/22 04:44:27;;;;;;;0.50;0.50;;;;;;;8.07;96.23;96127.94;29394;249;64013;-58
2022/12/22 04:44:58;;;;;;;0.50;0.50;;;;;;;8.10;96.06;96125.72;29395;221;63004;-57
2022/12/22 04:45:29;;;;;;;0.50;0.50;;;;;;;8.07;95.92;96122.53;29395;221;63009;-58
2022/12/22 04:46:00;;;;;;;0.50;0.50;;;;;;;8.07;96.07;96130.63;29395;202;63004;-58
2022/12/22 04:46:32;;;;;;;0.50;0.50;;;;;;;8.04;96.34;96123.09;29395;212;63009;-59
2022/12/22 04:47:08;;;;;;;0.50;0.50;;;;;;;8.03;95.96;96126.91;29395;204;63005;-70
2022/12/22 04:47:40;;;;;;;0.50;0.50;;;;;;;8.02;95.98;96119.91;29395;213;63009;-58
2022/12/22 04:48:11;;;;;;;0.50;0.50;;;;;;;8.01;95.89;96129.09;29395;213;63005;-57
2022/12/22 04:48:43;;;;;;;0.40;0.40;;;;;;;8.01;96.16;96129.09;29394;247;64013;-57
2022/12/22 04:49:14;;;;;;;0.50;0.50;;;;;;;8.01;96.05;96122.91;29395;216;63005;-72
2022/12/22 04:49:45;;;;;;;0.50;0.50;;;;;;;8.02;95.97;96122.59;29395;259;63009;-74
2022/12/22 04:50:17;;;;;;;0.50;0.50;;;;;;;8.06;95.87;96126.31;29395;200;63005;-59
2022/12/22 04:50:53;;;;;;;0.50;0.50;;;;;;;8.12;95.36;96126.25;29395;239;63009;-58
2022/12/22 04:51:27;;;;;;;0.50;0.50;;;;;;;8.12;94.94;96126.25;29395;202;63004;-57
2022/12/22 04:51:58;;;;;;;0.60;0.60;;;;;;;8.08;94.77;96124.13;29395;246;63009;-68
2022/12/22 04:52:30;;;;;;;0.50;0.50;;;;;;;8.06;94.78;96125.53;29395;218;63004;-58
2022/12/22 04:53:02;;;;;;;0.50;0.50;;;;;;;8.04;95.02;96131.22;29395;268;63009;-57
2022/12/22 04:53:36;;;;;;;0.47;0.47;;;;;;;8.07;94.92;96127.94;29394;220;64008;-56
2022/12/22 04:54:07;;;;;;;0.50;0.50;;;;;;;8.08;95.11;96121.44;29394;267;64014;-68
2022/12/22 04:54:39;;;;;;;0.50;0.50;;;;;;;8.13;95.08;96114.34;29394;236;64009;-58
2022/12/22 04:55:10;;;;;;;0.50;0.50;;;;;;;8.12;94.90;96118.12;29395;199;63009;-57
2022/12/22 04:55:49;;;;;;;0.50;0.50;;;;;;;8.13;94.34;96111.63;29395;218;63005;-59
2022/12/22 04:56:20;;;;;;;0.50;0.50;;;;;;;8.15;94.67;96115.66;29395;214;63009;-59
2022/12/22 04:56:52;;;;;;;0.50;0.50;;;;;;;8.14;94.28;96119.44;29395;214;63005;-57
2022/12/22 04:57:23;;;;;;;0.60;0.60;;;;;;;8.20;94.01;96112.06;29395;222;63009;-58
2022/12/22 04:57:54;;;;;;;0.50;0.50;;;;;;;8.21;93.83;96110.97;29395;215;63004;-57
2022/12/22 04:58:27;;;;;;;0.50;0.50;;;;;;;8.26;93.19;96114.37;29395;242;63009;-57
2022/12/22 04:58:58;;;;;;;0.50;0.50;;;;;;;8.29;92.92;96118.41;29395;235;63004;-57
2022/12/22 04:59:29;;;;;;;0.50;0.50;;;;;;;8.31;92.87;96110.78;29395;262;63009;-58
2022/12/22 05:00:02;;;;;;;0.50;0.50;;;;;;;8.29;92.67;96118.41;29394;204;64008;-58
2022/12/22 05:00:35;;;;;;;0.50;0.50;;;;;;;8.25;93.24;96123.59;29395;232;63008;-57
2022/12/22 05:01:12;;;;;;;0.50;0.50;;;;;;;8.23;93.23;96119.56;29394;197;64008;-68
2022/12/22 05:01:44;;;;;;;0.50;0.50;;;;;;;8.26;93.35;96110.88;29395;245;63009;-57
2022/12/22 05:02:16;;;;;;;0.50;0.50;;;;;;;8.26;92.88;96119.78;29395;197;63005;-57
2022/12/22 05:02:47;;;;;;;0.50;0.50;;;;;;;8.25;93.23;96111.97;29395;222;63009;-57
2022/12/22 05:03:19;;;;;;;0.50;0.50;;;;;;;8.26;93.14;96119.78;29395;215;63005;-59
2022/12/22 05:03:50;;;;;;;0.50;0.50;;;;;;;8.28;92.87;96122.19;29395;227;63015;-64
2022/12/22 05:04:22;;;;;;;0.50;0.50;;;;;;;8.29;92.96;96121.09;29395;244;63005;-59
2022/12/22 05:04:53;;;;;;;0.50;0.50;;;;;;;8.28;92.81;96120.31;29395;213;63009;-58
2022/12/22 05:05:24;;;;;;;0.50;0.50;;;;;;;8.30;92.77;96111.91;29395;204;63004;-57
2022/12/22 05:05:56;;;;;;;0.50;0.50;;;;;;;8.34;92.53;96121.00;29395;202;63009;-58
2022/12/22 05:06:27;;;;;;;0.50;0.50;;;;;;;8.31;92.79;96121.59;29394;265;64009;-58
2022/12/22 05:06:58;;;;;;;0.50;0.50;;;;;;;8.34;92.63;96115.59;29395;220;63009;-55
2022/12/22 05:07:29;;;;;;;0.50;0.50;;;;;;;8.34;92.48;96115.59;29394;197;64008;-55
2022/12/22 05:08:02;;;;;;;0.50;0.50;;;;;;;8.34;92.29;96118.31;29395;197;63008;-56
2022/12/22 05:08:33;;;;;;;0.50;0.50;;;;;;;8.29;92.48;96116.50;29395;204;63005;-57
2022/12/22 05:09:05;;;;;;;0.60;0.60;;;;;;;8.28;92.80;96116.78;29395;227;63009;-74
2022/12/22 05:09:36;;;;;;;0.50;0.50;;;;;;;8.26;92.58;96113.59;29395;209;63005;-71
2022/12/22 05:10:09;;;;;;;0.50;0.50;;;;;;;8.27;92.90;96116.00;29395;232;63009;-58
2022/12/22 05:10:44;;;;;;;0.50;0.50;;;;;;;8.25;92.60;96120.09;29395;329;63005;-58
2022/12/22 05:11:15;;;;;;;0.50;0.50;;;;;;;8.30;92.69;96110.00;29395;207;63017;-57
2022/12/22 05:11:46;;;;;;;0.50;0.50;;;;;;;8.36;92.05;96113.41;29395;203;63005;-57
2022/12/22 05:13:07;;;;;;;0.50;0.50;;;;;;;8.36;92.40;96116.13;29394;223;64009;-59
2022/12/22 05:13:38;;;;;;;0.47;0.47;;;;;;;8.35;92.28;96118.03;29395;204;63009;-57
2022/12/22 05:14:13;;;;;;;0.50;0.50;;;;;;;8.40;92.13;96125.25;29395;235;63004;-60
2022/12/22 05:14:44;;;;;;;0.50;0.50;;;;;;;8.42;92.23;96128.44;29395;206;63009;-57
2022/12/22 05:15:15;;;;;;;0.50;0.50;;;;;;;8.40;92.14;96122.53;29395;219;63004;-57
2022/12/22 05:15:46;;;;;;;0.50;0.50;;;;;;;8.36;92.33;96124.22;29395;230;63009;-57
2022/12/22 05:16:18;;;;;;;0.50;0.50;;;;;;;8.35;92.15;96128.03;29394;246;64009;-58
2022/12/22 05:16:49;;;;;;;0.50;0.50;;;;;;;8.33;92.63;96120.22;29395;259;63009;-57
2022/12/22 05:17:20;;;;;;;0.50;0.50;;;;;;;8.32;92.44;96128.59;29395;199;63005;-57
2022/12/22 05:17:53;;;;;;;0.50;0.50;;;;;;;8.30;92.47;96125.41;29394;237;64013;-58
2022/12/22 05:18:24;;;;;;;0.50;0.50;;;;;;;8.33;92.62;96131.03;29395;247;63005;-68
2022/12/22 05:18:56;;;;;;;0.50;0.50;;;;;;;8.32;92.77;96125.88;29395;234;63009;-57
2022/12/22 05:19:27;;;;;;;0.50;0.50;;;;;;;8.29;92.96;96123.81;29394;218;64009;-56
2022/12/22 05:19:58;;;;;;;0.50;0.50;;;;;;;8.30;92.64;96122.72;29395;220;63018;-57
2022/12/22 05:20:30;;;;;;;0.50;0.50;;;;;;;8.30;92.44;96125.41;29395;264;63004;-57
2022/12/22 05:21:05;;;;;;;0.50;0.50;;;;;;;8.32;92.77;96134.00;29394;202;64013;-57
2022/12/22 05:21:37;;;;;;;0.50;0.50;;;;;;;8.31;93.11;96116.19;29395;204;63004;-58
2022/12/22 05:22:08;;;;;;;0.43;0.43;;;;;;;8.35;92.77;96117.22;29395;222;63004;-58
2022/12/22 05:22:39;;;;;;;0.50;0.50;;;;;;;8.37;92.52;96131.25;29395;387;63018;-66
2022/12/22 05:23:11;;;;;;;0.50;0.50;;;;;;;8.36;92.46;96121.53;29394;240;64013;-59
2022/12/22 05:23:45;;;;;;;0.50;0.50;;;;;;;8.35;92.59;96125.31;29395;236;63005;-58
2022/12/22 05:24:16;;;;;;;0.50;0.50;;;;;;;8.33;93.01;96128.31;29395;279;63021;-56
2022/12/22 05:24:48;;;;;;;0.50;0.50;;;;;;;8.36;92.66;96125.03;29395;199;63005;-58
2022/12/22 05:25:20;;;;;;;0.50;0.50;;;;;;;8.37;92.56;96125.84;29395;271;63009;-57
2022/12/22 05:25:51;;;;;;;0.50;0.50;;;;;;;8.36;92.75;96118.81;29395;279;63005;-56
2022/12/22 05:26:22;;;;;;;0.50;0.50;;;;;;;8.34;92.81;96121.00;29395;226;63009;-57
2022/12/22 05:26:54;;;;;;;0.50;0.50;;;;;;;8.32;92.96;96113.19;29394;281;64009;-58
2022/12/22 05:27:26;;;;;;;0.50;0.50;;;;;;;8.38;92.68;96116.63;29395;259;63009;-57
2022/12/22 05:27:57;;;;;;;0.50;0.50;;;;;;;8.42;92.45;96123.03;29395;197;63004;-58
2022/12/22 05:28:30;;;;;;;0.50;0.50;;;;;;;8.44;92.60;96120.84;29395;204;63009;-58
2022/12/22 05:29:02;;;;;;;0.50;0.50;;;;;;;8.45;92.12;96122.44;29395;216;63004;-57
2022/12/22 05:29:33;;;;;;;0.50;0.50;;;;;;;8.42;92.48;96114.94;29395;196;63009;-58
2022/12/22 05:30:10;;;;;;;0.50;0.50;;;;;;;8.43;92.20;96121.94;29395;311;63004;-59
2022/12/22 05:30:41;;;;;;;0.50;0.50;;;;;;;8.43;92.56;96119.25;29395;221;63008;-57
2022/12/22 05:31:22;;;;;;;0.50;0.50;;;;;;;8.53;92.06;96121.78;29394;212;64009;-57
2022/12/22 05:31:53;;;;;;;0.50;0.50;;;;;;;8.53;91.72;96113.66;29416;198;64014;-71
2022/12/22 05:32:25;;;;;;;0.50;0.50;;;;;;;8.55;91.59;96124.19;29395;198;63005;-67
2022/12/22 05:32:56;;;;;;;0.50;0.50;;;;;;;8.53;91.98;96113.66;29395;217;63009;-57
2022/12/22 05:33:27;;;;;;;0.60;0.60;;;;;;;8.50;91.96;96122.37;29395;218;63005;-66
2022/12/22 05:33:59;;;;;;;0.50;0.50;;;;;;;8.50;92.27;96119.66;29394;226;64013;-58
2022/12/22 05:34:30;;;;;;;0.50;0.50;;;;;;;8.54;92.17;96120.69;29394;238;64009;-68
2022/12/22 05:35:02;;;;;;;0.50;0.50;;;;;;;8.53;92.15;96123.69;29395;228;63009;-57
2022/12/22 05:35:34;;;;;;;0.50;0.50;;;;;;;8.52;92.12;96122.88;29395;247;63004;-57
2022/12/22 05:36:06;;;;;;;0.50;0.50;;;;;;;8.54;92.41;96120.69;29395;209;63009;-59
2022/12/22 05:36:38;;;;;;;0.57;0.57;;;;;;;8.55;92.42;96133.09;29395;244;63004;-59
2022/12/22 05:37:09;;;;;;;0.50;0.50;;;;;;;8.58;91.88;96129.00;29395;208;63009;-57
2022/12/22 05:37:40;;;;;;;0.50;0.50;;;;;;;8.57;91.99;96130.09;29395;213;63004;-57
2022/12/22 05:38:12;;;;;;;0.50;0.50;;;;;;;8.59;92.03;96119.78;29395;201;63015;-57
2022/12/22 05:38:43;;;;;;;0.50;0.50;;;;;;;8.62;92.01;96117.28;29394;220;64009;-58
2022/12/22 05:39:15;;;;;;;0.50;0.50;;;;;;;8.60;91.77;96114.06;29394;322;64014;-67
2022/12/22 05:39:46;;;;;;;0.50;0.50;;;;;;;8.58;91.90;96110.88;29395;214;63005;-57
2022/12/22 05:40:18;;;;;;;0.50;0.50;;;;;;;8.50;92.28;96108.84;29395;257;63009;-59
2022/12/22 05:40:49;;;;;;;0.85;0.85;;;;;;;8.53;92.07;96113.66;29395;199;63005;-57
2022/12/22 05:41:21;;;;;;;0.50;0.50;;;;;;;8.58;92.48;96105.47;29395;388;63009;-57
2022/12/22 05:41:52;;;;;;;0.55;0.55;;;;;;;8.56;92.23;96118.47;29395;291;63005;-59
2022/12/22 05:42:35;;;;;;;0.50;0.50;;;;;;;8.53;92.73;96119.06;29395;202;63009;-57
2022/12/22 05:43:09;;;;;;;0.50;0.50;;;;;;;8.52;92.79;96122.88;29395;260;63004;-57
2022/12/22 05:43:40;;;;;;;0.60;0.60;;;;;;;8.52;92.88;96119.38;29395;206;63009;-59
2022/12/22 05:44:12;;;;;;;0.50;0.50;;;;;;;8.53;92.81;96124.47;29394;220;64009;-58
2022/12/22 05:44:43;;;;;;;0.50;0.50;;;;;;;8.51;92.94;96126.69;29395;214;63009;-58
2022/12/22 05:45:17;;;;;;;0.50;0.50;;;;;;;8.53;92.94;96123.69;29395;270;63004;-58
2022/12/22 05:45:48;;;;;;;0.50;0.50;;;;;;;8.51;92.97;96120.47;29395;234;63008;-56
2022/12/22 05:46:22;;;;;;;0.50;0.50;;;;;;;8.53;92.88;96116.38;29395;268;63005;-60
2022/12/22 05:46:53;;;;;;;0.50;0.50;;;;;;;8.53;92.79;96108.25;29395;203;63018;-59
2022/12/22 05:47:25;;;;;;;0.60;0.60;;;;;;;8.53;92.77;96119.06;29395;207;63005;-58
2022/12/22 05:47:56;;;;;;;0.40;0.40;;;;;;;8.53;92.93;96118.28;29395;239;63025;-58
2022/12/22 05:48:27;;;;;;;0.50;0.50;;;;;;;8.55;92.53;96116.88;29395;214;63011;-59
2022/12/22 05:48:59;;;;;;;0.50;0.50;;;;;;;8.50;92.98;96114.25;29395;250;63009;-59
2022/12/22 05:49:32;;;;;;;0.50;0.50;;;;;;;8.45;93.24;96122.44;29394;249;64009;-57
2022/12/22 05:50:08;;;;;;;0.50;0.50;;;;;;;8.43;93.58;96113.84;29395;257;63009;-57
2022/12/22 05:50:40;;;;;;;0.50;0.50;;;;;;;8.42;93.42;96114.94;29395;252;63004;-58
2022/12/22 05:51:14;;;;;;;0.50;0.50;;;;;;;8.40;93.47;96119.84;29395;226;63009;-58
2022/12/22 05:51:46;;;;;;;0.50;0.50;;;;;;;8.37;94.16;96115.03;29395;266;63004;-57
2022/12/22 05:52:17;;;;;;;0.50;0.50;;;;;;;8.45;93.94;96110.84;29395;260;63009;-57
2022/12/22 05:52:48;;;;;;;0.50;0.50;;;;;;;8.48;93.50;96121.84;29394;239;64004;-58
2022/12/22 05:53:19;;;;;;;0.50;0.50;;;;;;;8.47;93.66;96122.97;29395;232;63008;-57
2022/12/22 05:53:50;;;;;;;0.50;0.50;;;;;;;8.46;93.36;96117.84;29395;280;63005;-58
2022/12/22 05:54:22;;;;;;;0.50;0.50;;;;;;;8.44;93.46;96123.56;29394;207;64014;-72
2022/12/22 05:54:53;;;;;;;0.50;0.50;;;;;;;8.41;93.46;96132.25;29395;312;63005;-59
2022/12/22 05:55:25;;;;;;;0.50;0.50;;;;;;;8.39;93.72;96123.63;29395;224;63009;-57
2022/12/22 05:55:57;;;;;;;0.43;0.43;;;;;;;8.38;94.09;96122.03;29395;270;63005;-58
2022/12/22 05:56:28;;;;;;;0.50;0.50;;;;;;;8.34;94.06;96126.44;29395;230;63009;-58
2022/12/22 05:57:00;;;;;;;0.50;0.50;;;;;;;8.34;94.04;96126.44;29395;200;63005;-58
2022/12/22 05:57:32;;;;;;;0.50;0.50;;;;;;;8.34;94.30;96121.81;29395;227;63009;-58
2022/12/22 05:58:03;;;;;;;0.50;0.50;;;;;;;8.33;94.02;96120.22;29395;207;63004;-57
2022/12/22 05:58:37;;;;;;;0.50;0.50;;;;;;;8.32;94.11;96121.31;29394;205;64013;-57
2022/12/22 05:59:09;;;;;;;0.50;0.50;;;;;;;8.31;94.25;96116.19;29395;215;63004;-60
2022/12/22 05:59:41;;;;;;;0.50;0.50;;;;;;;8.30;94.73;96120.00;29395;260;63009;-58
2022/12/22 06:00:14;;;;;;;0.50;0.50;;;;;;;8.32;94.40;96118.59;29395;225;63004;-71
2022/12/22 06:00:46;;;;;;;0.50;0.50;;;;;;;8.31;94.67;96122.41;29395;246;63022;-59
2022/12/22 06:01:17;;;;;;;0.50;0.50;;;;;;;8.30;94.70;96111.91;29395;235;63005;-58
2022/12/22 06:01:49;;;;;;;0.50;0.50;;;;;;;8.34;94.29;96107.50;29395;248;63009;-58
2022/12/22 06:02:20;;;;;;;0.50;0.50;;;;;;;8.33;94.48;96114.00;29394;273;64009;-57
2022/12/22 06:02:51;;;;;;;0.50;0.50;;;;;;;8.31;94.77;96105.38;29395;227;63009;-57
2022/12/22 06:03:23;;;;;;;0.50;0.50;;;;;;;8.32;94.21;96112.38;29395;234;63005;-56
2022/12/22 06:03:55;;;;;;;0.50;0.50;;;;;;;8.29;94.58;96102.19;29395;223;63020;-57
2022/12/22 06:04:26;;;;;;;0.50;0.50;;;;;;;8.25;94.48;96104.66;29395;228;63004;-57
2022/12/22 06:04:57;;;;;;;0.50;0.50;;;;;;;8.25;94.80;96095.75;29395;234;63009;-70
2022/12/22 06:05:28;;;;;;;0.50;0.50;;;;;;;8.26;94.38;96102.78;29395;269;63004;-56
2022/12/22 06:06:00;;;;;;;0.50;0.50;;;;;;;8.26;94.87;96102.78;29395;239;63009;-57
2022/12/22 06:06:31;;;;;;;0.50;0.50;;;;;;;8.28;94.22;96105.97;29394;257;64009;-57
2022/12/22 06:07:02;;;;;;;0.50;0.50;;;;;;;8.26;94.36;96102.78;29395;235;63008;-58
2022/12/22 06:07:34;;;;;;;0.50;0.50;;;;;;;8.25;94.69;96111.97;29395;198;63004;-58
2022/12/22 06:08:08;;;;;;;0.50;0.50;;;;;;;8.25;94.37;96106.56;29395;230;63008;-57
2022/12/22 06:08:39;;;;;;;0.50;0.50;;;;;;;8.27;94.30;96107.06;29395;220;63005;-57
2022/12/22 06:09:11;;;;;;;0.50;0.50;;;;;;;8.26;94.48;96102.78;29395;326;63009;-59